| Date | Time | Temp. (oF) | Dew Point (oF) | Rel. Hum. (%) | Press. (in.) | Wind Dir. | Wind Speed (mph) | Hourly Rainfall (in.) |
|
|---|---|---|---|---|---|---|---|---|---|
| 1 | 06/01 | 00:00 | 60 | 53 | 79 | 30.11 | SW | 0 | 0.00 |
| 2 | 05/31 | 23:00 | 63 | 53 | 72 | 30.11 | NNW | 1 | 0.00 |
| 3 | 05/31 | 22:00 | 67 | 53 | 62 | 30.09 | NNW | 0 | 0.00 |
| 4 | 05/31 | 21:00 | 72 | 51 | 49 | 30.05 | NNW | 0 | 0.00 |
| 5 | 05/31 | 20:00 | 78 | 51 | 40 | 30.04 | NNW | 0 | 0.00 |
| 6 | 05/31 | 19:00 | 79 | 50 | 37 | 30.02 | NNE | 5 | 0.00 |
| 7 | 05/31 | 18:00 | 79 | 51 | 39 | 30.01 | ENE | 4 | 0.00 |
| 8 | 05/31 | 17:00 | 78 | 54 | 44 | 30.02 | NE | 9 | 0.00 |
| 9 | 05/31 | 16:00 | 76 | 54 | 47 | 30.03 | SW | 4 | 0.00 |
| 10 | 05/31 | 15:00 | 75 | 53 | 48 | 30.05 | W | 3 | 0.00 |
| 11 | 05/31 | 14:00 | 76 | 54 | 47 | 30.06 | W | 4 | 0.00 |
| 12 | 05/31 | 13:00 | 74 | 52 | 48 | 30.07 | NNW | 4 | 0.00 |
| 13 | 05/31 | 12:00 | 73 | 54 | 53 | 30.08 | NNW | 2 | 0.00 |
| 14 | 05/31 | 11:00 | 69 | 57 | 66 | 30.08 | SSE | 2 | 0.00 |
| 15 | 05/31 | 10:00 | 66 | 55 | 69 | 30.07 | WNW | 2 | 0.00 |
| 16 | 05/31 | 09:00 | 61 | 56 | 85 | 30.07 | W | 4 | 0.00 |
| 17 | 05/31 | 08:00 | 54 | 54 | 100 | 30.07 | W | 4 | 0.00 |
| 18 | 05/31 | 07:00 | 48 | 48 | 100 | 30.06 | SE | 0 | 0.00 |
| 19 | 05/31 | 06:00 | 48 | 48 | 100 | 30.04 | ENE | 0 | 0.00 |
| 20 | 05/31 | 05:00 | 48 | 48 | 100 | 30.03 | ENE | 0 | 0.00 |
| 21 | 05/31 | 04:00 | 50 | 50 | 100 | 30.01 | NE | 0 | 0.00 |
| 22 | 05/31 | 03:00 | 52 | 51 | 100 | 30.00 | WNW | 0 | 0.00 |
| 23 | 05/31 | 02:00 | 54 | 54 | 100 | 30.00 | W | 0 | 0.00 |
| 24 | 05/31 | 01:00 | 55 | 54 | 100 | 30.00 | SW | 2 | 0.00 |